Weather History for KAMN - November, 2013

Change the Weather History Date:

Tuesday, November 12, 2013

  Actual Average Record
Temperature  
Mean Temperature 28 °F -  
Max Temperature 34 °F 43 °F 66 °F (1964)
Min Temperature 20 °F 28 °F 17 °F (1983)
Degree Days  
Heating Degree Days 38    
Moisture  
Dew Point 19 °F    
Average Humidity 75    
Maximum Humidity 93    
Minimum Humidity 45    
Precipitation  
Precipitation 0.00 in - - ()
Sea Level Pressure  
Sea Level Pressure 30.49 in    
Wind  
Wind Speed 7 mph (WNW)    
Max Wind Speed 17 mph    
Max Gust Speed 22 mph    
Visibility 10 miles    
Events Snow    
Averages and records for this station are not official NWS values.
T = Trace of Precipitation, MM = Missing Value Source: NWS Daily Summary

Daily Weather History Graph

Daily Weather History Graph

Search for Another Location

Airport or City:

Trip Planner

Search our weather history database for the weather conditions in past years. The results will help you decide how hot, cold, wet, or windy it might be!

Date:

Astronomy

Nov. 12, 2013 Rise Set
Actual Time 7:28 AM EST 5:16 PM EST
Civil Twilight 6:57 AM EST 5:47 PM EST
Nautical Twilight 6:23 AM EST 6:21 PM EST
Astronomical Twilight 5:49 AM EST 6:55 PM EST
Moon 2:38 PM EST (11/12) 2:08 AM EST (11/12)
Length of Visible Light 10h 49m
Length of Day
9h 48m
Waxing Gibbous, 76% of the Moon is Illuminated
Nov 12
Waxing Gibbous
Nov 17
Full
Nov 25
Last Quarter
Dec 2
New
Dec 9
First Quarter

Hourly Weather History & Observations

Time (EST) Temp. Windchill Dew Point Humidity Pressure Visibility Wind Dir Wind Speed Gust Speed Precip Events Conditions
12:13 AM 26.6 °F 18.2 °F 21.4 °F 81% 30.36 in 10.0 mi NW 8.1 mph - N/A   Clear
12:33 AM 26.2 °F 18.6 °F 21.2 °F 81% 30.37 in 10.0 mi NW 6.9 mph - N/A   Clear
12:53 AM 25.5 °F 18.7 °F 21.0 °F 83% 30.37 in 10.0 mi NW 5.8 mph - N/A   Clear
1:13 AM 24.8 °F 20.5 °F 20.8 °F 85% 30.38 in 10.0 mi WNW 3.5 mph - N/A   Clear
1:33 AM 23.9 °F 16.8 °F 20.3 °F 86% 30.38 in 10.0 mi NW 5.8 mph - N/A   Clear
1:53 AM 24.6 °F 18.8 °F 20.1 °F 83% 30.39 in 10.0 mi WNW 4.6 mph - N/A   Clear
2:13 AM 24.3 °F 18.4 °F 20.1 °F 84% 30.39 in 10.0 mi NW 4.6 mph - N/A   Clear
2:34 AM 22.8 °F 16.7 °F 19.2 °F 86% 30.40 in 10.0 mi West 4.6 mph - N/A   Clear
2:54 AM 23.0 °F 17.0 °F 19.8 °F 87% 30.40 in 10.0 mi West 4.6 mph - N/A   Clear
3:14 AM 22.1 °F 15.9 °F 19.2 °F 89% 30.41 in 10.0 mi WNW 4.6 mph - N/A   Clear
3:34 AM 23.0 °F 18.4 °F 20.1 °F 89% 30.41 in 10.0 mi WNW 3.5 mph - N/A   Clear
3:54 AM 22.8 °F 16.7 °F 20.3 °F 90% 30.42 in 10.0 mi WNW 4.6 mph - N/A   Clear
4:14 AM 22.1 °F 15.9 °F 19.6 °F 90% 30.43 in 10.0 mi WNW 4.6 mph - N/A   Clear
4:34 AM 22.5 °F 16.3 °F 19.9 °F 90% 30.43 in 10.0 mi NW 4.6 mph - N/A   Clear
4:54 AM 22.8 °F 15.5 °F 20.1 °F 89% 30.45 in 10.0 mi WNW 5.8 mph - N/A   Clear
5:14 AM 22.6 °F 15.3 °F 20.1 °F 90% 30.45 in 10.0 mi NW 5.8 mph - N/A   Clear
5:35 AM 22.6 °F 15.3 °F 20.1 °F 90% 30.46 in 10.0 mi WNW 5.8 mph - N/A   Clear
5:55 AM 22.8 °F 14.5 °F 20.3 °F 90% 30.47 in 10.0 mi NW 6.9 mph - N/A   Clear
6:15 AM 23.0 °F 15.8 °F 20.5 °F 90% 30.48 in 10.0 mi NW 5.8 mph - N/A   Clear
6:30 AM 23.2 °F 17.2 °F 20.7 °F 90% 30.48 in 10.0 mi NW 4.6 mph - N/A   Clear
6:50 AM 23.0 °F 18.4 °F 20.5 °F 90% 30.49 in 10.0 mi NW 3.5 mph - N/A   Clear
7:10 AM 21.6 °F 14.0 °F 19.0 °F 90% 30.51 in 10.0 mi WNW 5.8 mph - N/A   Clear
7:30 AM 21.2 °F 14.9 °F 19.2 °F 92% 30.51 in 10.0 mi WNW 4.6 mph - N/A   Clear
7:50 AM 22.3 °F 17.6 °F 20.5 °F 93% 30.52 in 7.0 mi West 3.5 mph - N/A Snow Light Snow
8:10 AM 23.9 °F 19.5 °F 21.9 °F 92% 30.52 in 10.0 mi West 3.5 mph - N/A   Scattered Clouds
8:30 AM 25.7 °F - 23.2 °F 90% 30.53 in 10.0 mi Calm Calm - N/A   Clear
8:51 AM 27.3 °F 22.0 °F 24.3 °F 88% 30.53 in 10.0 mi WNW 4.6 mph - N/A   Clear
9:11 AM 28.9 °F 21.9 °F 25.0 °F 85% 30.54 in 10.0 mi NW 6.9 mph - N/A   Clear
9:31 AM 30.2 °F 21.3 °F 25.3 °F 82% 30.54 in 10.0 mi NW 10.4 mph - N/A   Mostly Cloudy
9:51 AM 30.2 °F 22.6 °F 24.6 °F 80% 30.54 in 10.0 mi NW 8.1 mph - N/A   Scattered Clouds
10:11 AM 31.8 °F 22.3 °F 23.2 °F 70% 30.55 in 10.0 mi WNW 12.7 mph 16.1 mph N/A   Scattered Clouds
10:31 AM 32.0 °F 21.6 °F 21.4 °F 65% 30.55 in 10.0 mi WNW 15.0 mph 20.7 mph N/A   Scattered Clouds
10:51 AM 32.0 °F 20.8 °F 16.9 °F 54% 30.55 in 10.0 mi NW 17.3 mph 21.9 mph N/A   Mostly Cloudy
11:11 AM 32.4 °F 23.5 °F 18.0 °F 55% 30.55 in 10.0 mi NW 11.5 mph 20.7 mph N/A   Mostly Cloudy
11:31 AM 32.9 °F 23.7 °F 18.5 °F 55% 30.54 in 10.0 mi WNW 12.7 mph - N/A   Overcast
11:51 AM 32.9 °F 23.7 °F 17.4 °F 53% 30.54 in 10.0 mi NW 12.7 mph 20.7 mph N/A   Overcast
12:12 PM 32.9 °F 24.1 °F 17.8 °F 54% 30.54 in 10.0 mi NW 11.5 mph 16.1 mph N/A   Overcast
12:32 PM 34.9 °F 24.9 °F 18.3 °F 51% 30.53 in 10.0 mi WNW 16.1 mph 19.6 mph N/A   Overcast
12:52 PM 34.3 °F 24.6 °F 18.1 °F 52% 30.53 in 10.0 mi NW 15.0 mph - N/A   Overcast
1:12 PM 33.8 °F 24.3 °F 16.0 °F 48% 30.53 in 10.0 mi West 13.8 mph 21.9 mph N/A   Mostly Cloudy
1:32 PM 34.0 °F 24.2 °F 16.7 °F 49% 30.52 in 10.0 mi WNW 15.0 mph 19.6 mph N/A   Overcast
1:52 PM 33.6 °F 25.0 °F 16.9 °F 50% 30.52 in 10.0 mi WNW 11.5 mph 18.4 mph N/A   Mostly Cloudy
2:12 PM 33.8 °F 23.2 °F 14.2 °F 45% 30.51 in 10.0 mi WNW 17.3 mph - N/A   Mostly Cloudy
2:32 PM 34.7 °F 25.9 °F 17.6 °F 50% 30.51 in 10.0 mi NNW 12.7 mph 17.3 mph N/A   Overcast
2:52 PM 34.0 °F 25.5 °F 17.4 °F 51% 30.51 in 10.0 mi NW 11.5 mph - N/A   Mostly Cloudy
3:13 PM 32.7 °F 23.9 °F 16.7 °F 52% 30.51 in 10.0 mi NW 11.5 mph 21.9 mph N/A   Mostly Cloudy
3:33 PM 33.1 °F 24.4 °F 17.1 °F 52% 30.51 in 10.0 mi NW 11.5 mph 20.7 mph N/A   Scattered Clouds
3:53 PM 32.0 °F 23.6 °F 16.3 °F 52% 30.51 in 10.0 mi WNW 10.4 mph 20.7 mph N/A   Scattered Clouds
4:13 PM 32.7 °F 24.5 °F 17.2 °F 53% 30.51 in 10.0 mi NW 10.4 mph 16.1 mph N/A   Mostly Cloudy
4:33 PM 32.0 °F 22.5 °F 16.5 °F 53% 30.51 in 10.0 mi NW 12.7 mph - N/A   Scattered Clouds
4:53 PM 30.9 °F 21.7 °F 16.9 °F 56% 30.51 in 10.0 mi NW 11.5 mph - N/A   Clear
5:13 PM 29.8 °F 23.9 °F 18.1 °F 62% 30.51 in 10.0 mi NW 5.8 mph - N/A   Clear
5:33 PM 29.8 °F 22.2 °F 18.5 °F 63% 30.52 in 10.0 mi WNW 8.1 mph - N/A   Scattered Clouds
5:53 PM 29.1 °F 23.0 °F 19.4 °F 67% 30.52 in 10.0 mi WNW 5.8 mph - N/A   Scattered Clouds
6:13 PM 28.8 °F 21.7 °F 20.1 °F 70% 30.53 in 10.0 mi WNW 6.9 mph - N/A   Mostly Cloudy
6:34 PM 29.3 °F 22.3 °F 20.3 °F 69% 30.53 in 10.0 mi WNW 6.9 mph - N/A   Mostly Cloudy
6:54 PM 27.7 °F 21.3 °F 20.5 °F 74% 30.54 in 10.0 mi WNW 5.8 mph - N/A   Scattered Clouds
7:14 PM 26.6 °F 20.0 °F 20.8 °F 79% 30.53 in 10.0 mi WNW 5.8 mph - N/A   Scattered Clouds
7:34 PM 26.2 °F 19.6 °F 21.7 °F 83% 30.53 in 10.0 mi West 5.8 mph - N/A   Scattered Clouds
7:54 PM 26.1 °F 19.4 °F 21.7 °F 84% 30.53 in 10.0 mi West 5.8 mph - N/A   Scattered Clouds
8:14 PM 25.7 °F 20.1 °F 21.0 °F 82% 30.52 in 10.0 mi West 4.6 mph - N/A   Scattered Clouds
8:34 PM 25.2 °F 19.5 °F 19.4 °F 79% 30.52 in 10.0 mi West 4.6 mph - N/A   Clear
8:54 PM 24.8 °F 17.9 °F 18.7 °F 78% 30.52 in 10.0 mi West 5.8 mph - N/A   Clear
9:14 PM 24.8 °F 19.1 °F 18.3 °F 76% 30.52 in 10.0 mi West 4.6 mph - N/A   Clear
9:35 PM 24.4 °F 17.5 °F 18.3 °F 78% 30.52 in 10.0 mi West 5.8 mph - N/A   Clear
9:55 PM 24.3 °F 18.4 °F 17.8 °F 76% 30.52 in 10.0 mi West 4.6 mph - N/A   Clear
10:15 PM 23.9 °F 19.5 °F 18.0 °F 78% 30.51 in 10.0 mi WSW 3.5 mph - N/A   Clear
10:30 PM 23.9 °F 19.5 °F 18.3 °F 79% 30.51 in 10.0 mi WSW 3.5 mph - N/A   Clear
10:50 PM 22.8 °F 18.2 °F 18.5 °F 83% 30.51 in 10.0 mi SW 3.5 mph - N/A   Clear
11:10 PM 22.6 °F 18.0 °F 18.7 °F 85% 30.51 in 10.0 mi SW 3.5 mph - N/A   Clear
11:30 PM 21.4 °F 16.6 °F 17.4 °F 85% 30.51 in 10.0 mi SSW 3.5 mph - N/A   Clear
11:50 PM 20.7 °F 15.8 °F 18.0 °F 89% 30.51 in 10.0 mi SW 3.5 mph - N/A   Clear